PCW weather

Carl R Keller Field
Port Clinton, Ohio, United States

Public forecast

Using degrees Fahrenheit for public forecast. Weather courtesy of forecast.io.

METAR (pilot weather report)

Retrieved 2019/03/24 10:35 UTC (0 seconds ago):

KPCW 241035Z AUTO 21004KT 10SM CLR 02/M03 A3019 RMK AO2

TAF (pilot weather forecast)

Closest forecast is Toledo Express Airport, 42.4 nm (78.5 km) W. Retrieved 2019/03/24 06:36 UTC (4 hours ago):

TAF KTOL 240532Z 2406/2506 23004KT P6SM BKN250 FM241200 21004KT P6SM OVC150 FM242100 23005KT P6SM OVC045 FM250200 VRB02KT P6SM OVC025